createdAt,value
2023-02-13T00:02:05.747Z,59.00
2023-02-13T00:04:32.574Z,59.10
2023-02-13T00:06:59.347Z,59.10
2023-02-13T00:09:26.267Z,59.20
2023-02-13T00:11:53.200Z,59.40
2023-02-13T00:14:20.583Z,59.30
2023-02-13T00:16:48.187Z,59.50
2023-02-13T00:19:15.132Z,59.80
2023-02-13T00:21:42.109Z,59.60
2023-02-13T00:24:09.281Z,59.60
2023-02-13T00:26:36.347Z,59.60
2023-02-13T00:29:04.123Z,59.70
2023-02-13T00:31:31.787Z,59.80
2023-02-13T00:33:58.805Z,59.90
2023-02-13T00:36:29.323Z,59.90
2023-02-13T00:38:57.290Z,60.10
2023-02-13T00:41:24.240Z,60.10
2023-02-13T00:43:51.599Z,60.20
2023-02-13T00:46:18.426Z,60.30
2023-02-13T00:48:46.006Z,61.30
2023-02-13T00:51:13.342Z,60.50
2023-02-13T00:53:40.960Z,60.60
2023-02-13T00:56:08.292Z,60.70
2023-02-13T00:58:37.046Z,60.80
2023-02-13T01:01:04.109Z,60.80
2023-02-13T01:03:31.198Z,61.00
2023-02-13T01:05:59.338Z,61.00
2023-02-13T01:08:28.360Z,61.10
2023-02-13T01:10:56.086Z,61.10
2023-02-13T01:13:23.172Z,61.10
2023-02-13T01:15:50.559Z,61.10
2023-02-13T01:18:18.442Z,61.20
2023-02-13T01:20:45.391Z,61.40
2023-02-13T01:23:12.729Z,61.40
2023-02-13T01:25:40.644Z,61.50
2023-02-13T01:28:07.591Z,61.70
2023-02-13T01:30:34.615Z,61.50
2023-02-13T01:33:01.458Z,61.60
2023-02-13T01:35:28.322Z,61.80
2023-02-13T01:37:55.128Z,61.80
2023-02-13T01:40:22.351Z,61.90
2023-02-13T01:42:49.228Z,61.90
2023-02-13T01:45:29.528Z,62.10
2023-02-13T01:47:58.280Z,62.20
2023-02-13T01:50:34.033Z,62.30
2023-02-13T01:53:04.522Z,62.30
2023-02-13T01:55:32.721Z,62.30
2023-02-13T01:58:02.746Z,62.50
2023-02-13T02:00:29.651Z,62.60
2023-02-13T02:03:04.280Z,62.70
2023-02-13T02:05:34.660Z,62.70
2023-02-13T02:08:04.713Z,62.80
2023-02-13T02:10:32.620Z,62.90
2023-02-13T02:12:59.474Z,62.80
2023-02-13T02:15:28.600Z,62.90
2023-02-13T02:17:55.548Z,63.00
2023-02-13T02:20:28.943Z,63.00
2023-02-13T02:23:04.822Z,63.10
2023-02-13T02:25:33.865Z,63.10
2023-02-13T02:28:02.105Z,63.30
2023-02-13T02:30:46.239Z,63.30
2023-02-13T02:33:30.885Z,63.50
2023-02-13T02:36:18.380Z,63.50
2023-02-13T02:38:45.334Z,63.50
2023-02-13T02:41:39.609Z,63.50
2023-02-13T02:44:13.020Z,63.80
2023-02-13T02:47:05.287Z,63.80
2023-02-13T02:49:53.402Z,64.00
2023-02-13T02:52:25.713Z,64.10
2023-02-13T02:55:09.351Z,64.20
2023-02-13T02:58:36.608Z,64.30
2023-02-13T03:01:24.083Z,64.20
2023-02-13T03:04:10.070Z,64.20
2023-02-13T03:06:47.155Z,64.40
2023-02-13T03:09:35.191Z,65.30
2023-02-13T03:12:20.915Z,64.70
2023-02-13T03:14:47.841Z,64.60
2023-02-13T03:17:34.269Z,64.70
2023-02-13T03:20:19.845Z,64.90
2023-02-13T03:22:49.973Z,64.90
2023-02-13T03:25:18.928Z,65.00
2023-02-13T03:28:06.830Z,65.10
2023-02-13T03:30:33.699Z,65.10
2023-02-13T03:33:07.811Z,65.20
2023-02-13T03:35:56.344Z,65.30
2023-02-13T03:38:39.908Z,65.50
2023-02-13T03:41:25.458Z,65.50
2023-02-13T03:44:09.808Z,65.60
2023-02-13T03:46:39.037Z,65.50
2023-02-13T03:49:26.051Z,65.60
2023-02-13T03:52:07.748Z,65.60
2023-02-13T03:55:14.041Z,65.80
2023-02-13T03:58:00.800Z,65.80
2023-02-13T04:00:29.832Z,65.80
2023-02-13T04:03:00.972Z,65.90
2023-02-13T04:05:29.685Z,65.90
2023-02-13T04:07:56.598Z,66.10
2023-02-13T04:10:24.500Z,66.30
2023-02-13T04:13:04.149Z,66.40
2023-02-13T04:15:37.326Z,66.50
2023-02-13T04:18:10.899Z,66.70
2023-02-13T04:20:38.351Z,66.80
2023-02-13T04:23:08.910Z,67.00
2023-02-13T04:25:37.385Z,67.40
2023-02-13T04:28:04.462Z,67.70
2023-02-13T04:30:31.394Z,67.80
2023-02-13T04:32:58.305Z,67.90
2023-02-13T04:35:25.169Z,68.00
2023-02-13T04:37:52.096Z,68.30
2023-02-13T04:40:19.001Z,68.40
2023-02-13T04:42:47.870Z,68.50
2023-02-13T04:45:14.872Z,68.60
2023-02-13T04:47:41.857Z,68.60
2023-02-13T04:50:08.991Z,68.80
2023-02-13T04:52:35.942Z,68.70
2023-02-13T04:55:02.887Z,68.80
2023-02-13T04:57:30.247Z,68.90
2023-02-13T04:59:57.476Z,68.90
2023-02-13T05:02:24.320Z,68.80
2023-02-13T05:04:51.653Z,68.80
2023-02-13T05:07:18.551Z,68.90
2023-02-13T05:09:45.403Z,68.70
2023-02-13T05:12:12.470Z,68.80
2023-02-13T05:14:39.612Z,68.70
2023-02-13T05:17:06.476Z,68.80
2023-02-13T05:19:33.443Z,68.90
2023-02-13T05:22:19.136Z,69.10
2023-02-13T05:24:46.552Z,69.10
2023-02-13T05:27:13.567Z,69.00
2023-02-13T05:29:40.762Z,69.10
2023-02-13T05:32:07.690Z,69.00
2023-02-13T05:34:34.542Z,69.00
2023-02-13T05:37:01.461Z,69.00
2023-02-13T05:39:29.099Z,69.10
2023-02-13T05:41:56.384Z,69.10
2023-02-13T05:44:23.205Z,69.20
2023-02-13T05:46:50.747Z,69.10
2023-02-13T05:49:17.898Z,69.10
2023-02-13T05:51:46.588Z,69.30
2023-02-13T05:54:13.595Z,69.40
2023-02-13T05:56:40.902Z,69.50
2023-02-13T05:59:08.315Z,69.50
2023-02-13T06:01:35.678Z,69.70
2023-02-13T06:04:03.968Z,69.70
2023-02-13T06:06:31.034Z,69.60
2023-02-13T06:08:57.844Z,69.60
2023-02-13T06:11:24.697Z,69.70
2023-02-13T06:13:51.536Z,69.90
2023-02-13T06:16:18.442Z,69.90
2023-02-13T06:18:45.324Z,70.00
2023-02-13T06:21:12.169Z,70.10
2023-02-13T06:23:39.002Z,70.20
2023-02-13T06:26:06.628Z,70.20
2023-02-13T06:28:33.863Z,70.40
2023-02-13T06:31:01.353Z,70.30
2023-02-13T06:33:28.563Z,70.50
2023-02-13T06:35:55.374Z,70.40
2023-02-13T06:38:22.278Z,70.40
2023-02-13T06:40:49.315Z,70.40
2023-02-13T06:43:16.490Z,70.40
2023-02-13T06:45:43.386Z,70.40
2023-02-13T06:48:10.167Z,70.40
2023-02-13T06:50:36.967Z,70.30
2023-02-13T06:53:03.881Z,70.30
2023-02-13T06:55:30.689Z,70.10
2023-02-13T06:57:57.495Z,69.90
2023-02-13T07:00:26.098Z,69.90
2023-02-13T07:02:53.695Z,69.70
2023-02-13T07:05:20.664Z,69.60
2023-02-13T07:07:47.465Z,69.70
2023-02-13T07:10:14.933Z,68.60
2023-02-13T07:12:41.930Z,65.90
2023-02-13T07:15:09.280Z,62.20
2023-02-13T07:17:36.336Z,59.40
2023-02-13T07:20:04.701Z,56.30
2023-02-13T07:22:33.053Z,54.30
2023-02-13T07:25:01.127Z,52.50
2023-02-13T07:27:29.433Z,50.60
2023-02-13T07:29:57.653Z,48.90
2023-02-13T07:32:25.620Z,47.50
2023-02-13T07:35:01.733Z,48.20
2023-02-13T07:37:31.232Z,49.20
2023-02-13T07:39:58.204Z,50.40
2023-02-13T07:42:25.240Z,50.70
2023-02-13T07:44:52.211Z,50.20
2023-02-13T07:47:20.322Z,50.00
2023-02-13T07:49:47.397Z,49.60
2023-02-13T07:52:14.320Z,50.60
2023-02-13T07:54:47.441Z,50.30
2023-02-13T07:57:15.452Z,51.10
2023-02-13T07:59:42.279Z,51.40
2023-02-13T08:02:11.340Z,51.60
2023-02-13T08:04:38.312Z,51.90
2023-02-13T08:07:05.096Z,52.10
2023-02-13T08:09:50.521Z,51.70
2023-02-13T08:12:17.377Z,51.50
2023-02-13T08:14:44.194Z,51.10
2023-02-13T08:17:11.171Z,50.20
2023-02-13T08:19:38.475Z,50.10
2023-02-13T08:22:06.080Z,49.90
2023-02-13T08:24:32.984Z,49.30
2023-02-13T08:26:59.819Z,48.60
2023-02-13T08:29:26.588Z,47.50
2023-02-13T08:31:53.460Z,45.90
2023-02-13T08:34:20.326Z,44.70
2023-02-13T08:36:47.094Z,43.50
2023-02-13T08:39:13.913Z,42.00
2023-02-13T08:41:42.353Z,40.50
2023-02-13T08:44:10.100Z,38.70
2023-02-13T08:46:36.988Z,37.10
2023-02-13T08:49:03.895Z,35.50
2023-02-13T08:51:30.739Z,33.90
2023-02-13T08:53:57.622Z,32.40
2023-02-13T08:56:24.441Z,31.40
2023-02-13T08:58:51.338Z,30.40
2023-02-13T09:01:18.289Z,29.50
2023-02-13T09:03:45.162Z,29.50
2023-02-13T09:06:12.398Z,29.40
2023-02-13T09:08:39.185Z,29.20
2023-02-13T09:11:07.343Z,29.40
2023-02-13T09:13:35.410Z,29.10
2023-02-13T09:16:02.826Z,28.90
2023-02-13T09:18:29.617Z,28.70
2023-02-13T09:21:14.574Z,28.70
2023-02-13T09:23:41.533Z,28.50
2023-02-13T09:26:10.109Z,28.50
2023-02-13T09:28:37.516Z,28.40
2023-02-13T09:31:08.591Z,27.90
2023-02-13T09:33:35.868Z,28.30
2023-02-13T09:36:06.649Z,28.20
2023-02-13T09:38:33.937Z,28.20
2023-02-13T09:41:03.216Z,28.10
2023-02-13T09:43:35.798Z,28.40
2023-02-13T09:46:07.258Z,28.20
2023-02-13T09:48:35.672Z,28.00
2023-02-13T09:51:02.610Z,27.90
2023-02-13T09:53:33.388Z,27.80
2023-02-13T09:56:03.302Z,27.90
2023-02-13T09:58:30.068Z,28.30
2023-02-13T10:00:58.184Z,28.40
2023-02-13T10:03:43.572Z,28.40
2023-02-13T10:06:10.399Z,28.60
2023-02-13T10:08:37.170Z,28.80
2023-02-13T10:11:22.749Z,29.30
2023-02-13T10:14:00.056Z,29.50
2023-02-13T10:16:49.887Z,29.60
2023-02-13T10:19:36.138Z,29.50
2023-02-13T10:22:21.670Z,29.90
2023-02-13T10:24:55.052Z,30.00
2023-02-13T10:27:23.646Z,30.40
2023-02-13T10:30:05.628Z,31.10
2023-02-13T10:32:35.153Z,31.50
2023-02-13T10:35:02.436Z,32.30
2023-02-13T10:37:29.696Z,32.70
2023-02-13T10:39:56.747Z,32.10
2023-02-13T10:42:31.008Z,31.70
2023-02-13T10:45:33.052Z,31.30
2023-02-13T10:48:02.654Z,31.50
2023-02-13T10:50:44.480Z,30.90
2023-02-13T10:53:14.372Z,30.00
2023-02-13T10:55:41.210Z,30.30
2023-02-13T10:58:17.087Z,31.00
2023-02-13T11:01:02.883Z,31.20
2023-02-13T11:03:30.640Z,30.00
2023-02-13T11:05:59.243Z,31.30
2023-02-13T11:08:28.722Z,32.10
2023-02-13T11:10:55.498Z,30.90
2023-02-13T11:13:23.686Z,29.90
2023-02-13T11:16:04.233Z,30.00
2023-02-13T11:18:36.051Z,29.90
2023-02-13T11:21:07.926Z,28.80
2023-02-13T11:23:37.379Z,28.50
2023-02-13T11:26:08.671Z,27.60
2023-02-13T11:28:44.924Z,27.00
2023-02-13T11:31:14.091Z,27.30
2023-02-13T11:33:41.401Z,27.50
2023-02-13T11:36:10.068Z,28.10
2023-02-13T11:38:36.893Z,28.00
2023-02-13T11:41:08.780Z,28.10
2023-02-13T11:43:37.488Z,27.90
2023-02-13T11:46:08.684Z,27.00
2023-02-13T11:48:35.701Z,27.00
2023-02-13T11:51:03.080Z,27.30
2023-02-13T11:53:31.753Z,26.80
2023-02-13T11:56:04.549Z,26.40
2023-02-13T11:58:31.638Z,26.50
2023-02-13T12:01:28.482Z,26.10
2023-02-13T12:04:02.699Z,26.50
2023-02-13T12:06:29.821Z,26.50
2023-02-13T12:08:57.287Z,26.40
2023-02-13T12:11:27.155Z,25.40
2023-02-13T12:13:55.182Z,25.40
2023-02-13T12:16:27.816Z,25.20
2023-02-13T12:18:56.599Z,25.90
2023-02-13T12:21:23.420Z,26.30
2023-02-13T12:24:22.653Z,25.90
2023-02-13T12:26:53.343Z,24.80
2023-02-13T12:29:33.641Z,25.10
2023-02-13T12:32:20.954Z,25.80
2023-02-13T12:35:05.144Z,26.30
2023-02-13T12:38:01.180Z,26.00
2023-02-13T12:40:27.993Z,25.80
2023-02-13T12:43:04.169Z,25.70
2023-02-13T12:45:36.284Z,25.80
2023-02-13T12:48:21.963Z,26.50
2023-02-13T12:50:57.861Z,26.90
2023-02-13T12:53:24.806Z,26.60
2023-02-13T12:55:57.646Z,26.10
2023-02-13T12:58:42.948Z,26.10
2023-02-13T13:01:15.711Z,26.10
2023-02-13T13:04:00.270Z,26.40
2023-02-13T13:06:33.837Z,27.30
2023-02-13T13:09:00.646Z,27.50
2023-02-13T13:11:34.497Z,27.50
2023-02-13T13:14:07.358Z,27.70
2023-02-13T13:16:43.024Z,27.80
2023-02-13T13:19:09.877Z,27.70
2023-02-13T13:21:55.509Z,27.00
2023-02-13T13:24:45.572Z,27.00
2023-02-13T13:27:32.464Z,27.00
2023-02-13T13:30:02.713Z,27.20
2023-02-13T13:32:30.438Z,26.80
2023-02-13T13:34:58.022Z,26.70
2023-02-13T13:37:37.673Z,27.00
2023-02-13T13:40:23.347Z,27.50
2023-02-13T13:43:00.136Z,28.10
2023-02-13T13:45:46.177Z,28.30
2023-02-13T13:48:28.345Z,28.30
2023-02-13T13:50:55.462Z,28.30
2023-02-13T13:53:23.525Z,28.30
2023-02-13T13:55:50.355Z,28.60
2023-02-13T13:58:32.276Z,28.60
2023-02-13T14:01:18.007Z,28.60
2023-02-13T14:03:46.357Z,28.60
2023-02-13T14:06:17.230Z,28.30
2023-02-13T14:08:44.449Z,28.10
2023-02-13T14:11:49.698Z,27.80
2023-02-13T14:14:28.403Z,27.70
2023-02-13T14:16:58.603Z,28.30
2023-02-13T14:19:38.490Z,28.50
2023-02-13T14:22:20.767Z,28.40
2023-02-13T14:24:50.571Z,28.30
2023-02-13T14:27:37.711Z,28.30
2023-02-13T14:30:25.810Z,28.50
2023-02-13T14:32:52.797Z,28.40
2023-02-13T14:35:31.193Z,28.20
2023-02-13T14:37:59.427Z,28.00
2023-02-13T14:40:29.323Z,28.90
2023-02-13T14:42:59.208Z,29.90
2023-02-13T14:45:32.303Z,30.60
2023-02-13T14:48:05.195Z,30.60
2023-02-13T14:50:37.946Z,30.30
2023-02-13T14:53:08.193Z,30.50
2023-02-13T14:55:36.264Z,30.60
2023-02-13T14:58:15.269Z,30.90
2023-02-13T15:00:50.161Z,31.10
2023-02-13T15:03:20.113Z,31.70
2023-02-13T15:05:51.094Z,32.20
2023-02-13T15:08:20.183Z,32.60
2023-02-13T15:10:47.158Z,34.10
2023-02-13T15:13:19.119Z,36.00
2023-02-13T15:15:50.841Z,36.90
2023-02-13T15:18:22.533Z,37.20
2023-02-13T15:20:49.795Z,37.20
2023-02-13T15:23:21.913Z,37.10
2023-02-13T15:25:55.714Z,37.20
2023-02-13T15:28:23.705Z,37.80
2023-02-13T15:31:13.861Z,38.90
2023-02-13T15:33:45.345Z,40.20
2023-02-13T15:36:16.298Z,41.60
2023-02-13T15:38:43.165Z,43.00
2023-02-13T15:41:11.510Z,43.60
2023-02-13T15:43:40.395Z,44.50
2023-02-13T15:46:19.543Z,45.40
2023-02-13T15:48:46.994Z,45.80
2023-02-13T15:51:20.737Z,46.70
2023-02-13T15:53:51.520Z,47.10
2023-02-13T15:56:18.346Z,46.70
2023-02-13T15:58:45.537Z,47.10
2023-02-13T16:01:13.145Z,47.90
2023-02-13T16:03:41.490Z,48.50
2023-02-13T16:06:13.237Z,49.10
2023-02-13T16:08:45.278Z,49.50
2023-02-13T16:11:24.728Z,49.90
2023-02-13T16:14:01.447Z,50.40
2023-02-13T16:16:29.088Z,50.80
2023-02-13T16:18:56.194Z,51.00
2023-02-13T16:21:24.384Z,51.50
2023-02-13T16:23:58.429Z,51.80
2023-02-13T16:26:25.658Z,52.10
2023-02-13T16:28:52.879Z,52.40
2023-02-13T16:31:21.164Z,52.70
2023-02-13T16:33:48.482Z,53.00
2023-02-13T16:36:15.326Z,53.30
2023-02-13T16:38:43.852Z,53.80
2023-02-13T16:41:19.687Z,54.10
2023-02-13T16:43:51.957Z,54.70
2023-02-13T16:46:28.191Z,54.80
2023-02-13T16:49:00.736Z,55.10
2023-02-13T16:51:30.445Z,56.20
2023-02-13T16:54:03.779Z,55.90
2023-02-13T16:56:56.990Z,56.20
2023-02-13T16:59:26.087Z,56.80
2023-02-13T17:02:18.101Z,56.90
2023-02-13T17:05:07.767Z,57.60
2023-02-13T17:07:39.290Z,57.70
2023-02-13T17:10:17.861Z,57.80
2023-02-13T17:12:45.810Z,58.20
2023-02-13T17:15:14.446Z,58.50
2023-02-13T17:17:41.431Z,58.80
2023-02-13T17:20:15.027Z,59.10
2023-02-13T17:22:45.448Z,59.30
2023-02-13T17:25:25.224Z,59.70
2023-02-13T17:27:55.230Z,60.10
2023-02-13T17:30:25.495Z,60.10
2023-02-13T17:33:07.432Z,60.30
2023-02-13T17:35:35.496Z,60.80
2023-02-13T17:38:02.595Z,60.70
2023-02-13T17:40:31.787Z,60.80
2023-02-13T17:42:59.487Z,60.80
2023-02-13T17:45:29.194Z,60.80
2023-02-13T17:47:59.759Z,60.80
2023-02-13T17:50:28.601Z,60.70
2023-02-13T17:52:56.162Z,60.80
2023-02-13T17:55:26.033Z,60.90
2023-02-13T17:57:54.500Z,61.20
2023-02-13T18:00:22.261Z,61.30
2023-02-13T18:02:50.767Z,61.50
2023-02-13T18:05:19.097Z,61.50
2023-02-13T18:07:47.091Z,61.70
2023-02-13T18:10:15.468Z,62.10
2023-02-13T18:12:43.255Z,62.40
2023-02-13T18:15:11.243Z,62.50
2023-02-13T18:17:38.363Z,62.50
2023-02-13T18:20:07.455Z,62.60
2023-02-13T18:22:34.414Z,62.70
2023-02-13T18:25:01.870Z,62.70
2023-02-13T18:27:29.503Z,62.90
2023-02-13T18:30:03.165Z,62.90
2023-02-13T18:32:30.248Z,63.10
2023-02-13T18:34:57.233Z,62.90
2023-02-13T18:37:24.327Z,62.90
2023-02-13T18:39:51.304Z,63.10
2023-02-13T18:42:18.823Z,63.20
2023-02-13T18:44:45.764Z,63.40
2023-02-13T18:47:12.672Z,63.70
2023-02-13T18:49:39.956Z,63.60
2023-02-13T18:52:06.885Z,63.80
2023-02-13T18:54:33.760Z,64.00
2023-02-13T18:57:00.685Z,64.00
2023-02-13T18:59:27.971Z,64.20
2023-02-13T19:01:54.895Z,64.60
2023-02-13T19:04:21.962Z,64.80
2023-02-13T19:06:49.359Z,64.90
2023-02-13T19:09:16.350Z,65.10
2023-02-13T19:11:44.373Z,65.50
2023-02-13T19:14:12.420Z,65.60
2023-02-13T19:16:39.304Z,65.70
2023-02-13T19:19:07.030Z,65.80
2023-02-13T19:21:35.780Z,66.30
2023-02-13T19:24:04.122Z,66.30
2023-02-13T19:26:31.217Z,66.20
2023-02-13T19:28:58.580Z,66.40
2023-02-13T19:31:28.541Z,66.40
2023-02-13T19:33:55.993Z,66.50
2023-02-13T19:36:25.523Z,66.60
2023-02-13T19:38:57.748Z,66.70
2023-02-13T19:41:25.206Z,66.90
2023-02-13T19:43:53.733Z,66.90
2023-02-13T19:46:26.080Z,67.00
2023-02-13T19:48:53.789Z,67.10
2023-02-13T19:51:25.600Z,67.30
2023-02-13T19:54:01.135Z,67.40
2023-02-13T19:56:30.150Z,67.50
2023-02-13T19:58:57.353Z,67.60
2023-02-13T20:01:25.976Z,67.90
2023-02-13T20:03:53.617Z,68.00
2023-02-13T20:06:30.023Z,68.10
2023-02-13T20:08:59.913Z,68.50
2023-02-13T20:11:26.932Z,68.30
2023-02-13T20:13:59.707Z,68.40
2023-02-13T20:16:27.431Z,68.50
2023-02-13T20:18:54.582Z,68.50
2023-02-13T20:21:21.699Z,68.60
2023-02-13T20:23:51.237Z,68.70
2023-02-13T20:26:19.198Z,68.90
2023-02-13T20:28:46.769Z,69.10
2023-02-13T20:31:17.348Z,69.10
2023-02-13T20:33:46.566Z,69.10
2023-02-13T20:36:13.468Z,69.20
2023-02-13T20:38:40.957Z,69.30
2023-02-13T20:41:12.650Z,69.70
2023-02-13T20:43:39.661Z,69.60
2023-02-13T20:46:07.622Z,69.70
2023-02-13T20:48:35.108Z,70.50
2023-02-13T20:51:04.842Z,69.80
2023-02-13T20:53:32.411Z,69.80
2023-02-13T20:56:08.175Z,70.00
2023-02-13T20:58:35.201Z,70.00
2023-02-13T21:01:03.108Z,69.80
2023-02-13T21:03:30.447Z,69.80
2023-02-13T21:05:57.553Z,69.90
2023-02-13T21:08:24.540Z,70.00
2023-02-13T21:10:52.284Z,70.10
2023-02-13T21:13:19.219Z,70.10
2023-02-13T21:15:49.040Z,70.10
2023-02-13T21:18:16.160Z,70.10
2023-02-13T21:20:43.060Z,70.30
2023-02-13T21:23:09.999Z,70.20
2023-02-13T21:25:36.908Z,70.40
2023-02-13T21:28:03.958Z,70.50
2023-02-13T21:30:30.908Z,70.50
2023-02-13T21:32:57.904Z,70.70
2023-02-13T21:35:24.994Z,70.70
2023-02-13T21:37:52.008Z,70.80
2023-02-13T21:40:20.065Z,70.80
2023-02-13T21:42:46.960Z,70.80
2023-02-13T21:45:14.742Z,70.90
2023-02-13T21:47:41.619Z,71.00
2023-02-13T21:50:08.895Z,71.00
2023-02-13T21:52:35.935Z,70.90
2023-02-13T21:55:03.651Z,70.90
2023-02-13T21:57:30.902Z,71.00
2023-02-13T21:59:57.829Z,71.10
2023-02-13T22:02:26.995Z,71.10
2023-02-13T22:04:53.945Z,71.10
2023-02-13T22:07:20.876Z,71.10
2023-02-13T22:09:50.081Z,71.30
2023-02-13T22:12:16.977Z,71.10
2023-02-13T22:14:43.906Z,71.20
2023-02-13T22:17:10.920Z,71.30
2023-02-13T22:19:37.817Z,71.30
2023-02-13T22:22:04.753Z,71.20
2023-02-13T22:24:32.778Z,71.30
2023-02-13T22:26:59.755Z,71.40
2023-02-13T22:29:27.169Z,71.30
2023-02-13T22:31:54.167Z,71.40
2023-02-13T22:34:21.206Z,71.40
2023-02-13T22:36:48.159Z,71.70
2023-02-13T22:39:15.055Z,71.80
2023-02-13T22:41:44.468Z,71.80
2023-02-13T22:44:11.429Z,71.70
2023-02-13T22:46:38.551Z,71.70
2023-02-13T22:49:05.524Z,71.70
2023-02-13T22:51:35.305Z,71.90
2023-02-13T22:54:03.336Z,72.20
2023-02-13T22:56:31.283Z,72.20
2023-02-13T22:58:58.534Z,72.50
2023-02-13T23:01:26.801Z,72.30
2023-02-13T23:03:54.562Z,72.30
2023-02-13T23:06:21.951Z,72.30
2023-02-13T23:08:52.473Z,72.20
2023-02-13T23:11:40.313Z,72.20
2023-02-13T23:14:07.410Z,72.30
2023-02-13T23:16:54.293Z,72.60
2023-02-13T23:19:21.643Z,72.50
2023-02-13T23:21:48.972Z,72.80
2023-02-13T23:24:16.022Z,73.10
2023-02-13T23:26:42.931Z,73.20
2023-02-13T23:29:09.903Z,73.20
2023-02-13T23:31:36.960Z,73.20
2023-02-13T23:34:04.060Z,73.00
2023-02-13T23:36:30.986Z,72.90
2023-02-13T23:38:57.917Z,72.90
2023-02-13T23:41:24.916Z,72.90
2023-02-13T23:43:51.834Z,73.20
2023-02-13T23:46:18.841Z,73.10
2023-02-13T23:48:46.293Z,72.90
2023-02-13T23:51:13.492Z,72.90
2023-02-13T23:53:40.454Z,73.00
2023-02-13T23:56:07.743Z,73.00
2023-02-13T23:58:35.012Z,73.10
